createdAt,value
2023-04-02T00:01:20.124Z,87.70
2023-04-02T00:04:22.056Z,87.80
2023-04-02T00:06:55.540Z,87.80
2023-04-02T00:09:32.543Z,87.70
2023-04-02T00:12:15.487Z,87.70
2023-04-02T00:14:47.598Z,87.70
2023-04-02T00:17:14.840Z,87.70
2023-04-02T00:19:45.750Z,87.70
2023-04-02T00:22:18.104Z,87.70
2023-04-02T00:24:45.519Z,87.70
2023-04-02T00:27:13.944Z,87.70
2023-04-02T00:29:47.037Z,87.70
2023-04-02T00:32:21.383Z,87.70
2023-04-02T00:34:49.637Z,87.70
2023-04-02T00:37:23.838Z,87.60
2023-04-02T00:39:52.932Z,87.60
2023-04-02T00:42:20.806Z,87.60
2023-04-02T00:44:50.005Z,87.60
2023-04-02T00:47:21.438Z,87.50
2023-04-02T00:49:54.127Z,87.50
2023-04-02T00:52:26.292Z,87.60
2023-04-02T00:55:01.232Z,87.50
2023-04-02T00:57:28.377Z,87.50
2023-04-02T00:59:59.496Z,87.50
2023-04-02T01:02:32.859Z,87.50
2023-04-02T01:05:05.187Z,87.50
2023-04-02T01:07:51.202Z,87.40
2023-04-02T01:10:31.992Z,87.40
2023-04-02T01:13:09.288Z,87.40
2023-04-02T01:15:41.270Z,87.30
2023-04-02T01:18:34.212Z,87.40
2023-04-02T01:21:30.406Z,87.40
2023-04-02T01:24:12.172Z,87.40
2023-04-02T01:27:16.552Z,87.30
2023-04-02T01:29:58.288Z,87.40
2023-04-02T01:32:28.509Z,87.20
2023-04-02T01:34:58.116Z,87.30
2023-04-02T01:37:36.838Z,87.30
2023-04-02T01:40:19.625Z,87.30
2023-04-02T01:42:56.655Z,87.40
2023-04-02T01:45:25.623Z,87.30
2023-04-02T01:47:53.308Z,87.30
2023-04-02T01:50:37.004Z,87.30
2023-04-02T01:53:07.142Z,87.30
2023-04-02T01:55:41.265Z,87.30
2023-04-02T01:58:10.149Z,87.20
2023-04-02T02:00:44.860Z,87.10
2023-04-02T02:03:12.996Z,87.10
2023-04-02T02:05:40.898Z,87.10
2023-04-02T02:08:15.454Z,87.10
2023-04-02T02:10:42.328Z,87.20
2023-04-02T02:13:39.099Z,87.00
2023-04-02T02:16:18.129Z,87.10
2023-04-02T02:18:49.665Z,87.00
2023-04-02T02:21:29.241Z,87.10
2023-04-02T02:23:57.254Z,87.00
2023-04-02T02:26:36.554Z,87.00
2023-04-02T02:29:06.980Z,87.10
2023-04-02T02:31:37.031Z,87.10
2023-04-02T02:34:08.899Z,87.10
2023-04-02T02:36:45.616Z,87.10
2023-04-02T02:39:18.861Z,87.10
2023-04-02T02:41:51.158Z,87.10
2023-04-02T02:44:22.228Z,86.90
2023-04-02T02:46:53.799Z,87.00
2023-04-02T02:49:25.815Z,87.00
2023-04-02T02:51:59.948Z,86.90
2023-04-02T02:54:29.594Z,86.80
2023-04-02T02:57:02.248Z,86.80
2023-04-02T02:59:30.592Z,86.80
2023-04-02T03:01:59.726Z,86.80
2023-04-02T03:04:30.614Z,86.70
2023-04-02T03:06:58.380Z,86.90
2023-04-02T03:09:39.240Z,86.80
2023-04-02T03:12:19.108Z,86.80
2023-04-02T03:14:53.084Z,86.70
2023-04-02T03:17:28.106Z,86.60
2023-04-02T03:20:02.401Z,86.70
2023-04-02T03:22:32.199Z,86.90
2023-04-02T03:25:03.991Z,86.80
2023-04-02T03:27:34.707Z,86.70
2023-04-02T03:30:14.585Z,86.80
2023-04-02T03:32:45.967Z,86.50
2023-04-02T03:35:21.120Z,86.70
2023-04-02T03:37:54.350Z,86.60
2023-04-02T03:40:24.705Z,86.60
2023-04-02T03:42:54.452Z,86.70
2023-04-02T03:45:24.478Z,86.70
2023-04-02T03:47:56.472Z,86.60
2023-04-02T03:50:33.813Z,86.50
2023-04-02T03:53:02.679Z,86.60
2023-04-02T03:55:36.617Z,86.40
2023-04-02T03:58:06.857Z,86.60
2023-04-02T04:00:37.483Z,86.60
2023-04-02T04:03:13.144Z,86.50
2023-04-02T04:05:48.350Z,86.40
2023-04-02T04:08:18.709Z,86.30
2023-04-02T04:10:50.386Z,86.40
2023-04-02T04:13:21.687Z,86.40
2023-04-02T04:15:53.971Z,86.50
2023-04-02T04:18:37.183Z,86.40
2023-04-02T04:21:11.256Z,86.40
2023-04-02T04:23:43.265Z,86.10
2023-04-02T04:26:21.113Z,86.30
2023-04-02T04:28:58.496Z,86.30
2023-04-02T04:31:34.098Z,86.30
2023-04-02T04:34:09.179Z,86.30
2023-04-02T04:36:47.910Z,86.30
2023-04-02T04:39:23.695Z,86.20
2023-04-02T04:41:52.434Z,86.10
2023-04-02T04:44:23.448Z,86.10
2023-04-02T04:46:57.361Z,86.30
2023-04-02T04:49:31.995Z,86.20
2023-04-02T04:52:01.848Z,86.00
2023-04-02T04:54:29.281Z,86.10
2023-04-02T04:57:01.014Z,86.00
2023-04-02T04:59:33.195Z,86.20
2023-04-02T05:02:05.898Z,86.00
2023-04-02T05:04:37.492Z,85.90
2023-04-02T05:07:09.284Z,85.90
2023-04-02T05:09:40.334Z,85.70
2023-04-02T05:12:18.181Z,85.90
2023-04-02T05:14:51.096Z,85.70
2023-04-02T05:17:21.792Z,85.70
2023-04-02T05:19:57.292Z,85.80
2023-04-02T05:22:31.175Z,85.70
2023-04-02T05:25:09.592Z,85.80
2023-04-02T05:27:41.968Z,85.80
2023-04-02T05:30:32.645Z,85.30
2023-04-02T05:33:05.184Z,85.50
2023-04-02T05:35:37.947Z,85.30
2023-04-02T05:38:06.617Z,85.70
2023-04-02T05:40:38.932Z,85.60
2023-04-02T05:43:10.684Z,85.60
2023-04-02T05:45:41.274Z,85.40
2023-04-02T05:48:22.384Z,85.50
2023-04-02T05:50:54.176Z,85.30
2023-04-02T05:53:23.861Z,85.30
2023-04-02T05:55:56.153Z,85.40
2023-04-02T05:58:36.316Z,85.30
2023-04-02T06:01:20.925Z,84.90
2023-04-02T06:03:53.595Z,84.90
2023-04-02T06:06:33.253Z,85.20
2023-04-02T06:09:06.027Z,85.20
2023-04-02T06:11:42.180Z,84.70
2023-04-02T06:14:12.507Z,84.40
2023-04-02T06:16:40.335Z,84.30
2023-04-02T06:19:17.775Z,84.60
2023-04-02T06:21:49.810Z,84.90
2023-04-02T06:24:19.900Z,84.80
2023-04-02T06:26:51.920Z,84.50
2023-04-02T06:29:26.465Z,84.50
2023-04-02T06:31:56.615Z,84.40
2023-04-02T06:34:25.740Z,83.70
2023-04-02T06:36:59.821Z,84.30
2023-04-02T06:39:27.621Z,84.50
2023-04-02T06:42:01.634Z,84.20
2023-04-02T06:44:32.924Z,83.60
2023-04-02T06:47:04.068Z,83.90
2023-04-02T06:49:37.191Z,84.10
2023-04-02T06:52:22.870Z,84.20
2023-04-02T06:54:49.896Z,84.00
2023-04-02T06:57:17.120Z,84.20
2023-04-02T06:59:44.473Z,84.10
2023-04-02T07:02:26.597Z,83.40
2023-04-02T07:04:56.511Z,83.70
2023-04-02T07:07:25.076Z,84.00
2023-04-02T07:09:51.974Z,83.70
2023-04-02T07:12:24.129Z,84.10
2023-04-02T07:14:51.178Z,84.00
2023-04-02T07:17:18.631Z,83.70
2023-04-02T07:19:49.616Z,84.00
2023-04-02T07:22:17.402Z,83.80
2023-04-02T07:24:46.545Z,83.80
2023-04-02T07:27:15.097Z,83.90
2023-04-02T07:29:46.135Z,83.50
2023-04-02T07:32:14.068Z,83.70
2023-04-02T07:34:41.519Z,83.60
2023-04-02T07:37:09.757Z,83.70
2023-04-02T07:39:38.345Z,83.70
2023-04-02T07:42:08.208Z,83.90
2023-04-02T07:44:35.221Z,83.60
2023-04-02T07:47:02.192Z,83.70
2023-04-02T07:49:29.199Z,83.20
2023-04-02T07:51:56.120Z,83.60
2023-04-02T07:54:23.116Z,83.40
2023-04-02T07:56:50.084Z,83.60
2023-04-02T07:59:18.763Z,83.60
2023-04-02T08:01:45.809Z,83.40
2023-04-02T08:04:18.372Z,83.30
2023-04-02T08:06:45.990Z,83.60
2023-04-02T08:09:12.959Z,83.20
2023-04-02T08:11:42.120Z,83.00
2023-04-02T08:14:09.962Z,83.20
2023-04-02T08:16:56.949Z,83.50
2023-04-02T08:19:23.790Z,83.10
2023-04-02T08:21:51.863Z,83.00
2023-04-02T08:24:19.456Z,83.10
2023-04-02T08:26:47.921Z,83.30
2023-04-02T08:29:15.054Z,83.10
2023-04-02T08:31:42.462Z,83.30
2023-04-02T08:34:13.388Z,83.30
2023-04-02T08:36:44.308Z,83.30
2023-04-02T08:39:11.926Z,82.70
2023-04-02T08:41:45.284Z,82.70
2023-04-02T08:44:24.653Z,82.80
2023-04-02T08:46:54.938Z,82.60
2023-04-02T08:49:29.843Z,82.90
2023-04-02T08:51:56.877Z,82.80
2023-04-02T08:54:27.988Z,82.70
2023-04-02T08:56:59.434Z,82.50
2023-04-02T08:59:32.736Z,82.60
2023-04-02T09:02:07.407Z,82.70
2023-04-02T09:04:39.678Z,82.20
2023-04-02T09:07:09.794Z,81.80
2023-04-02T09:09:38.286Z,81.80
2023-04-02T09:12:11.418Z,82.30
2023-04-02T09:14:43.931Z,81.60
2023-04-02T09:17:17.543Z,81.80
2023-04-02T09:19:55.265Z,81.80
2023-04-02T09:22:23.885Z,82.20
2023-04-02T09:24:55.403Z,81.70
2023-04-02T09:27:24.730Z,81.60
2023-04-02T09:29:54.865Z,81.60
2023-04-02T09:32:45.751Z,81.50
2023-04-02T09:35:25.581Z,81.20
2023-04-02T09:38:18.874Z,80.90
2023-04-02T09:40:50.353Z,81.40
2023-04-02T09:43:19.545Z,81.30
2023-04-02T09:45:57.603Z,81.30
2023-04-02T09:48:27.683Z,82.10
2023-04-02T09:51:08.766Z,81.50
2023-04-02T09:53:39.067Z,81.70
2023-04-02T09:56:13.121Z,81.40
2023-04-02T09:58:41.898Z,81.20
2023-04-02T10:01:29.281Z,80.90
2023-04-02T10:03:57.194Z,80.90
2023-04-02T10:06:26.248Z,80.90
2023-04-02T10:08:53.393Z,80.60
2023-04-02T10:11:27.016Z,80.90
2023-04-02T10:14:00.743Z,79.90
2023-04-02T10:16:35.113Z,79.90
2023-04-02T10:19:09.079Z,80.80
2023-04-02T10:21:40.024Z,79.80
2023-04-02T10:24:12.256Z,79.40
2023-04-02T10:26:50.697Z,77.50
2023-04-02T10:29:37.764Z,76.40
2023-04-02T10:32:12.416Z,77.00
2023-04-02T10:34:44.163Z,76.80
2023-04-02T10:37:53.050Z,73.70
2023-04-02T10:40:26.946Z,75.10
2023-04-02T10:43:08.153Z,72.90
2023-04-02T10:45:42.668Z,73.00
2023-04-02T10:48:18.349Z,70.60
2023-04-02T10:50:50.124Z,69.60
2023-04-02T10:53:20.854Z,69.20
2023-04-02T10:55:53.671Z,69.30
2023-04-02T10:58:26.190Z,68.50
2023-04-02T11:00:58.150Z,69.40
2023-04-02T11:03:34.897Z,66.80
2023-04-02T11:06:06.246Z,64.90
2023-04-02T11:08:41.324Z,69.30
2023-04-02T11:11:14.460Z,65.20
2023-04-02T11:13:50.501Z,69.30
2023-04-02T11:16:17.689Z,61.00
2023-04-02T11:19:26.101Z,63.80
2023-04-02T11:22:00.247Z,62.80
2023-04-02T11:24:38.696Z,60.40
2023-04-02T11:27:20.583Z,63.20
2023-04-02T11:29:50.211Z,61.70
2023-04-02T11:32:40.625Z,61.80
2023-04-02T11:35:39.544Z,62.30
2023-04-02T11:38:43.693Z,61.30
2023-04-02T11:41:10.521Z,62.00
2023-04-02T11:43:51.836Z,58.00
2023-04-02T11:46:45.594Z,59.90
2023-04-02T11:49:39.920Z,60.50
2023-04-02T11:52:27.462Z,64.00
2023-04-02T11:55:00.839Z,61.20
2023-04-02T11:57:50.780Z,59.30
2023-04-02T12:00:52.323Z,59.90
2023-04-02T12:03:42.322Z,58.80
2023-04-02T12:06:18.752Z,61.60
2023-04-02T12:08:58.106Z,61.80
2023-04-02T12:11:34.286Z,58.00
2023-04-02T12:14:03.251Z,59.60
2023-04-02T12:16:35.397Z,61.90
2023-04-02T12:19:07.953Z,56.40
2023-04-02T12:21:35.433Z,58.70
2023-04-02T12:24:04.028Z,61.00
2023-04-02T12:26:42.374Z,58.80
2023-04-02T12:29:26.110Z,56.40
2023-04-02T12:31:56.022Z,54.40
2023-04-02T12:34:25.074Z,56.00
2023-04-02T12:36:56.907Z,54.20
2023-04-02T12:39:25.982Z,53.50
2023-04-02T12:41:55.139Z,53.40
2023-04-02T12:44:24.286Z,58.00
2023-04-02T12:46:52.784Z,55.80
2023-04-02T12:49:37.023Z,55.60
2023-04-02T12:52:06.960Z,52.90
2023-04-02T12:54:38.213Z,58.00
2023-04-02T12:57:23.284Z,50.30
2023-04-02T12:59:50.806Z,53.40
2023-04-02T13:02:19.874Z,56.80
2023-04-02T13:04:52.563Z,52.20
2023-04-02T13:07:21.377Z,50.40
2023-04-02T13:09:51.285Z,54.40
2023-04-02T13:12:27.339Z,54.10
2023-04-02T13:14:56.522Z,56.60
2023-04-02T13:17:42.469Z,51.60
2023-04-02T13:20:30.676Z,56.80
2023-04-02T13:22:58.661Z,51.40
2023-04-02T13:25:31.202Z,52.40
2023-04-02T13:27:58.668Z,53.90
2023-04-02T13:30:27.543Z,53.70
2023-04-02T13:32:56.918Z,53.90
2023-04-02T13:35:23.892Z,52.00
2023-04-02T13:37:52.353Z,51.00
2023-04-02T13:40:19.452Z,49.70
2023-04-02T13:42:48.579Z,51.10
2023-04-02T13:45:23.123Z,49.80
2023-04-02T13:47:50.487Z,51.00
2023-04-02T13:50:18.797Z,54.00
2023-04-02T13:52:46.467Z,51.50
2023-04-02T13:55:15.818Z,51.30
2023-04-02T13:57:42.704Z,54.90
2023-04-02T14:00:10.938Z,54.80
2023-04-02T14:02:43.592Z,55.30
2023-04-02T14:05:24.355Z,56.20
2023-04-02T14:08:04.186Z,53.30
2023-04-02T14:10:56.900Z,56.80
2023-04-02T14:14:00.956Z,55.10
2023-04-02T14:16:46.603Z,57.40
2023-04-02T14:19:28.113Z,56.60
2023-04-02T14:22:05.530Z,54.70
2023-04-02T14:24:41.156Z,56.00
2023-04-02T14:27:22.732Z,56.00
2023-04-02T14:30:01.558Z,54.10
2023-04-02T14:32:36.460Z,55.90
2023-04-02T14:35:10.928Z,55.90
2023-04-02T14:37:47.929Z,54.60
2023-04-02T14:40:22.698Z,53.40
2023-04-02T14:42:57.490Z,54.60
2023-04-02T14:45:42.000Z,54.60
2023-04-02T14:48:21.266Z,53.90
2023-04-02T14:50:49.692Z,54.10
2023-04-02T14:53:22.856Z,54.70
2023-04-02T14:55:51.952Z,54.60
2023-04-02T14:58:25.857Z,54.00
2023-04-02T15:00:58.614Z,53.80
2023-04-02T15:03:30.801Z,54.40
2023-04-02T15:06:03.297Z,52.70
2023-04-02T15:08:33.266Z,54.70
2023-04-02T15:11:07.890Z,53.40
2023-04-02T15:13:39.643Z,54.30
2023-04-02T15:16:12.045Z,54.50
2023-04-02T15:18:38.962Z,54.00
2023-04-02T15:21:25.597Z,53.90
2023-04-02T15:24:01.668Z,54.00
2023-04-02T15:26:36.250Z,53.10
2023-04-02T15:29:28.387Z,53.00
2023-04-02T15:32:03.935Z,55.70
2023-04-02T15:34:35.420Z,54.40
2023-04-02T15:37:12.951Z,54.70
2023-04-02T15:39:50.359Z,54.30
2023-04-02T15:42:22.762Z,52.60
2023-04-02T15:45:09.536Z,56.00
2023-04-02T15:47:48.126Z,54.50
2023-04-02T15:50:36.936Z,55.20
2023-04-02T15:53:16.806Z,55.90
2023-04-02T15:55:48.973Z,55.80
2023-04-02T15:58:27.752Z,55.80
2023-04-02T16:01:09.150Z,55.40
2023-04-02T16:04:18.048Z,54.00
2023-04-02T16:07:00.500Z,55.00
2023-04-02T16:09:42.225Z,55.50
2023-04-02T16:12:14.671Z,55.80
2023-04-02T16:14:43.658Z,56.00
2023-04-02T16:17:24.776Z,54.90
2023-04-02T16:19:56.926Z,54.80
2023-04-02T16:22:28.938Z,54.60
2023-04-02T16:25:00.641Z,54.60
2023-04-02T16:27:33.435Z,54.50
2023-04-02T16:30:34.756Z,54.60
2023-04-02T16:33:19.837Z,54.00
2023-04-02T16:36:01.065Z,53.80
2023-04-02T16:38:46.054Z,53.50
2023-04-02T16:41:22.046Z,53.40
2023-04-02T16:43:56.985Z,53.10
2023-04-02T16:46:38.944Z,53.20
2023-04-02T16:49:20.316Z,53.50
2023-04-02T16:51:58.228Z,54.00
2023-04-02T16:54:31.609Z,53.30
2023-04-02T16:57:16.678Z,53.60
2023-04-02T16:59:52.981Z,54.60
2023-04-02T17:02:36.330Z,54.30
2023-04-02T17:05:15.894Z,54.30
2023-04-02T17:07:48.364Z,54.70
2023-04-02T17:10:26.463Z,55.20
2023-04-02T17:13:03.024Z,55.50
2023-04-02T17:15:37.049Z,55.60
2023-04-02T17:18:13.038Z,56.00
2023-04-02T17:20:51.049Z,56.50
2023-04-02T17:23:19.757Z,56.90
2023-04-02T17:25:52.899Z,57.30
2023-04-02T17:28:25.649Z,57.30
2023-04-02T17:30:56.107Z,57.80
2023-04-02T17:33:26.619Z,57.50
2023-04-02T17:36:22.245Z,57.70
2023-04-02T17:38:58.736Z,58.00
2023-04-02T17:41:34.218Z,58.00
2023-04-02T17:44:10.620Z,58.10
2023-04-02T17:46:45.863Z,58.00
2023-04-02T17:49:23.164Z,58.30
2023-04-02T17:51:56.987Z,58.20
2023-04-02T17:54:34.144Z,58.40
2023-04-02T17:57:16.467Z,58.50
2023-04-02T18:00:11.880Z,58.60
2023-04-02T18:02:49.697Z,58.60
2023-04-02T18:05:31.991Z,58.70
2023-04-02T18:08:12.484Z,59.00
2023-04-02T18:10:46.552Z,59.00
2023-04-02T18:13:22.562Z,59.00
2023-04-02T18:16:04.712Z,59.20
2023-04-02T18:19:08.727Z,59.30
2023-04-02T18:21:43.478Z,59.40
2023-04-02T18:24:41.154Z,59.50
2023-04-02T18:27:24.837Z,59.60
2023-04-02T18:30:03.244Z,59.60
2023-04-02T18:32:52.587Z,59.70
2023-04-02T18:35:25.596Z,60.00
2023-04-02T18:38:12.209Z,60.10
2023-04-02T18:40:49.688Z,60.10
2023-04-02T18:43:27.742Z,60.30
2023-04-02T18:46:00.465Z,60.30
2023-04-02T18:48:40.927Z,60.40
2023-04-02T18:51:14.941Z,60.60
2023-04-02T18:53:43.174Z,60.70
2023-04-02T18:56:16.067Z,60.80
2023-04-02T18:58:51.711Z,61.00
2023-04-02T19:01:22.620Z,61.10
2023-04-02T19:03:52.748Z,61.20
2023-04-02T19:06:24.074Z,61.40
2023-04-02T19:08:56.784Z,61.40
2023-04-02T19:11:29.956Z,61.60
2023-04-02T19:14:00.416Z,61.70
2023-04-02T19:16:54.177Z,62.00
2023-04-02T19:19:23.154Z,62.20
2023-04-02T19:22:17.261Z,62.20
2023-04-02T19:24:57.936Z,62.20
2023-04-02T19:27:31.733Z,62.40
2023-04-02T19:30:12.868Z,62.40
2023-04-02T19:32:52.569Z,62.70
2023-04-02T19:35:22.854Z,62.70
2023-04-02T19:38:01.515Z,62.90
2023-04-02T19:40:39.373Z,62.90
2023-04-02T19:43:10.663Z,63.20
2023-04-02T19:45:40.370Z,63.30
2023-04-02T19:48:17.641Z,63.30
2023-04-02T19:50:45.026Z,63.50
2023-04-02T19:53:12.743Z,63.40
2023-04-02T19:55:40.346Z,63.50
2023-04-02T19:58:19.541Z,63.70
2023-04-02T20:00:47.269Z,63.70
2023-04-02T20:03:14.902Z,63.80
2023-04-02T20:05:41.820Z,63.90
2023-04-02T20:08:10.801Z,64.30
2023-04-02T20:10:41.148Z,64.20
2023-04-02T20:13:09.822Z,64.50
2023-04-02T20:15:36.917Z,64.30
2023-04-02T20:18:04.973Z,64.20
2023-04-02T20:20:32.224Z,64.50
2023-04-02T20:22:59.166Z,64.60
2023-04-02T20:25:26.587Z,64.50
2023-04-02T20:27:53.508Z,64.70
2023-04-02T20:30:22.199Z,64.80
2023-04-02T20:32:49.217Z,64.80
2023-04-02T20:35:16.594Z,64.80
2023-04-02T20:37:43.484Z,64.80
2023-04-02T20:40:11.049Z,64.80
2023-04-02T20:42:37.913Z,65.00
2023-04-02T20:45:06.286Z,64.80
2023-04-02T20:47:35.089Z,65.30
2023-04-02T20:50:02.225Z,65.20
2023-04-02T20:52:30.256Z,65.20
2023-04-02T20:54:57.979Z,65.10
2023-04-02T20:57:26.248Z,65.30
2023-04-02T20:59:54.610Z,65.40
2023-04-02T21:02:22.030Z,65.50
2023-04-02T21:04:50.336Z,65.30
2023-04-02T21:07:17.714Z,65.50
2023-04-02T21:09:44.647Z,65.50
2023-04-02T21:12:12.233Z,65.30
2023-04-02T21:14:40.403Z,65.40
2023-04-02T21:17:07.818Z,65.50
2023-04-02T21:19:34.865Z,65.60
2023-04-02T21:22:03.574Z,65.60
2023-04-02T21:24:33.478Z,65.80
2023-04-02T21:27:01.265Z,65.80
2023-04-02T21:29:28.168Z,66.20
2023-04-02T21:31:55.290Z,66.00
2023-04-02T21:34:22.252Z,65.90
2023-04-02T21:36:50.534Z,65.90
2023-04-02T21:39:20.559Z,65.90
2023-04-02T21:41:50.486Z,66.00
2023-04-02T21:44:19.716Z,66.10
2023-04-02T21:46:50.429Z,66.10
2023-04-02T21:49:21.960Z,66.10
2023-04-02T21:51:52.472Z,66.20
2023-04-02T21:54:20.808Z,66.10
2023-04-02T21:56:48.814Z,66.00
2023-04-02T21:59:17.152Z,65.90
2023-04-02T22:01:46.907Z,66.20
2023-04-02T22:04:16.669Z,66.30
2023-04-02T22:06:47.351Z,66.30
2023-04-02T22:09:17.020Z,66.40
2023-04-02T22:11:47.804Z,66.30
2023-04-02T22:14:15.406Z,66.20
2023-04-02T22:16:42.981Z,66.30
2023-04-02T22:19:12.550Z,66.40
2023-04-02T22:21:39.714Z,66.30
2023-04-02T22:24:09.344Z,66.40
2023-04-02T22:26:36.654Z,66.30
2023-04-02T22:29:05.742Z,66.40
2023-04-02T22:31:34.851Z,66.40
2023-04-02T22:34:02.461Z,66.40
2023-04-02T22:36:30.166Z,66.60
2023-04-02T22:38:57.943Z,66.50
2023-04-02T22:41:27.745Z,66.50
2023-04-02T22:43:56.841Z,66.50
2023-04-02T22:46:27.033Z,66.70
2023-04-02T22:48:54.803Z,66.70
2023-04-02T22:51:24.368Z,66.60
2023-04-02T22:53:54.087Z,66.70
2023-04-02T22:56:27.547Z,66.80
2023-04-02T22:58:54.592Z,66.70
2023-04-02T23:01:25.184Z,66.70
2023-04-02T23:03:54.000Z,66.70
2023-04-02T23:06:21.824Z,66.60
2023-04-02T23:08:48.817Z,66.80
2023-04-02T23:11:18.043Z,66.80
2023-04-02T23:13:47.460Z,66.80
2023-04-02T23:16:15.000Z,66.90
2023-04-02T23:18:46.469Z,66.90
2023-04-02T23:21:13.463Z,67.00
2023-04-02T23:23:40.683Z,66.90
2023-04-02T23:26:09.876Z,67.00
2023-04-02T23:28:38.672Z,67.00
2023-04-02T23:31:08.290Z,67.00
2023-04-02T23:33:36.358Z,67.00
2023-04-02T23:36:08.842Z,67.10
2023-04-02T23:38:36.568Z,67.10
2023-04-02T23:41:03.492Z,67.00
2023-04-02T23:43:30.877Z,67.40
2023-04-02T23:45:57.781Z,67.30
2023-04-02T23:48:25.157Z,67.30
2023-04-02T23:50:52.109Z,67.30
2023-04-02T23:53:20.567Z,67.30
2023-04-02T23:55:47.463Z,67.30
2023-04-02T23:58:14.767Z,67.30
